Time;durP1;ratioP1;P1;durP2;ratioP2;P2;SDS_P1;SDS_P2;PMS_P1;PMS_P2;Temp;Humidity;BMP_temperature;BMP_pressure;BME280_temperature;BME280_humidity;BME280_pressure;Samples;Min_cycle;Max_cycle;Signal;HPM_P1;HPM_P2
2023/05/17 00:01:23;;;;;;;19.07;3.27;;;9.60;99.90;;;;;;5029435;28;20209;-64
2023/05/17 00:03:52;;;;;;;9.48;3.15;;;9.60;99.90;;;;;;5028401;28;20212;-64
2023/05/17 00:06:19;;;;;;;12.63;3.30;;;9.50;99.90;;;;;;5033305;28;20562;-64
2023/05/17 00:08:46;;;;;;;10.55;3.08;;;9.40;99.90;;;;;;5030356;28;20205;-64
2023/05/17 00:11:13;;;;;;;5.73;2.33;;;9.40;99.90;;;;;;5025980;28;20232;-64
2023/05/17 00:13:41;;;;;;;7.10;2.57;;;9.30;99.90;;;;;;5030719;28;20939;-63
2023/05/17 00:16:08;;;;;;;12.73;2.57;;;9.30;99.90;;;;;;5012238;28;20208;-63
2023/05/17 00:18:35;;;;;;;14.83;2.83;;;9.30;99.90;;;;;;5019821;28;20204;-63
2023/05/17 00:21:02;;;;;;;7.27;2.37;;;9.20;99.90;;;;;;5046834;28;20212;-64
2023/05/17 00:23:29;;;;;;;16.70;2.97;;;9.20;99.90;;;;;;5040000;28;20232;-63
2023/05/17 00:25:55;;;;;;;11.50;2.50;;;9.10;99.90;;;;;;5026347;28;20207;-63
2023/05/17 00:28:22;;;;;;;13.17;3.33;;;9.00;99.90;;;;;;5028053;28;20201;-63
2023/05/17 00:30:50;;;;;;;17.63;3.67;;;8.90;99.90;;;;;;5017248;28;20208;-63
2023/05/17 00:33:17;;;;;;;8.90;2.27;;;8.80;99.90;;;;;;5025126;28;20607;-63
2023/05/17 00:35:44;;;;;;;9.07;2.50;;;8.80;99.90;;;;;;5038296;28;20208;-64
2023/05/17 00:38:10;;;;;;;9.00;3.20;;;8.80;99.90;;;;;;5032849;28;20201;-64
2023/05/17 00:40:37;;;;;;;12.87;2.83;;;8.70;99.90;;;;;;5030141;28;20466;-63
2023/05/17 00:43:04;;;;;;;11.77;2.80;;;8.70;99.90;;;;;;5033410;28;20200;-63
2023/05/17 00:45:31;;;;;;;15.47;3.70;;;8.60;99.90;;;;;;5032096;28;20201;-64
2023/05/17 00:47:59;;;;;;;10.07;2.70;;;8.60;99.90;;;;;;5019887;28;20213;-64
2023/05/17 00:50:26;;;;;;;14.20;2.53;;;8.50;99.90;;;;;;5018340;28;20259;-63
2023/05/17 00:52:53;;;;;;;10.60;2.67;;;8.50;99.90;;;;;;5043095;28;20236;-64
2023/05/17 00:55:21;;;;;;;13.90;3.43;;;8.50;99.90;;;;;;5037315;28;20201;-63
2023/05/17 00:57:48;;;;;;;19.53;3.30;;;8.40;99.90;;;;;;5038730;28;20709;-63
2023/05/17 01:00:15;;;;;;;9.77;2.53;;;8.40;99.90;;;;;;5040348;28;20308;-63
2023/05/17 01:02:46;;;;;;;13.67;2.87;;;8.40;99.90;;;;;;5015555;28;20833;-63
2023/05/17 01:05:14;;;;;;;14.57;3.67;;;8.40;99.90;;;;;;5024189;28;20685;-63
2023/05/17 01:07:41;;;;;;;11.87;3.20;;;8.40;99.90;;;;;;5044636;28;21730;-63
2023/05/17 01:10:09;;;;;;;8.77;2.70;;;8.40;99.90;;;;;;5042928;28;20201;-63
2023/05/17 01:12:49;;;;;;;12.53;3.33;;;8.40;99.90;;;;;;5037087;28;20319;-63
2023/05/17 01:15:22;;;;;;;11.73;2.77;;;8.40;99.90;;;;;;5026192;28;20697;-64
2023/05/17 01:17:54;;;;;;;15.20;3.40;;;8.30;99.90;;;;;;5013652;28;20208;-63
2023/05/17 01:20:28;;;;;;;14.90;2.33;;;8.20;99.90;;;;;;5022335;28;20223;-63
2023/05/17 01:23:10;;;;;;;11.50;3.10;;;8.20;99.90;;;;;;5046350;28;20236;-63
2023/05/17 01:25:48;;;;;;;17.93;2.77;;;8.20;99.90;;;;;;5037453;28;21006;-63
2023/05/17 01:28:19;;;;;;;14.67;2.87;;;8.30;99.90;;;;;;5029514;28;20201;-63
2023/05/17 01:30:49;;;;;;;21.83;3.50;;;8.30;99.90;;;;;;5029153;28;20662;-63
2023/05/17 01:33:18;;;;;;;14.87;3.30;;;8.30;99.90;;;;;;5018134;28;20232;-64
2023/05/17 01:35:44;;;;;;;8.00;2.27;;;8.30;99.90;;;;;;5027866;28;20576;-63
2023/05/17 01:38:11;;;;;;;16.77;3.10;;;8.30;99.90;;;;;;5036026;28;20801;-63
2023/05/17 01:40:45;;;;;;;13.10;2.70;;;8.30;99.90;;;;;;5040199;28;20198;-64
2023/05/17 01:43:24;;;;;;;11.67;2.97;;;8.30;99.90;;;;;;5029783;28;20204;-63
2023/05/17 01:45:58;;;;;;;11.70;2.63;;;8.30;99.90;;;;;;5040548;28;20212;-63
2023/05/17 01:48:31;;;;;;;9.37;2.70;;;8.30;99.90;;;;;;5004295;28;20200;-63
2023/05/17 01:50:59;;;;;;;7.73;2.70;;;8.30;99.90;;;;;;5035791;28;20201;-63
2023/05/17 01:53:32;;;;;;;5.80;2.37;;;8.40;99.90;;;;;;5027918;28;20232;-63
2023/05/17 01:56:04;;;;;;;14.70;2.50;;;8.40;99.90;;;;;;5043624;28;20207;-64
2023/05/17 01:58:40;;;;;;;12.40;3.17;;;8.40;99.90;;;;;;5026441;28;20649;-64
2023/05/17 02:01:08;;;;;;;15.33;3.10;;;8.40;99.90;;;;;;5038009;28;20201;-63
2023/05/17 02:03:34;;;;;;;14.90;2.47;;;8.40;99.90;;;;;;5031741;28;20689;-64
2023/05/17 02:06:01;;;;;;;11.50;2.50;;;8.30;99.90;;;;;;5015681;28;20300;-63
2023/05/17 02:08:28;;;;;;;14.83;3.17;;;8.30;99.90;;;;;;5018645;28;20233;-64
2023/05/17 02:10:55;;;;;;;10.97;2.73;;;8.30;99.90;;;;;;5042487;28;20857;-63
2023/05/17 02:13:22;;;;;;;9.20;2.40;;;8.40;99.90;;;;;;5032060;28;20336;-63
2023/05/17 02:15:56;;;;;;;13.33;2.77;;;8.40;99.90;;;;;;5036408;28;20215;-63
2023/05/17 02:18:23;;;;;;;16.73;2.33;;;8.40;99.90;;;;;;5027911;28;20261;-63
2023/05/17 02:20:50;;;;;;;7.00;2.00;;;8.40;99.90;;;;;;5019396;28;20299;-63
2023/05/17 02:23:17;;;;;;;8.00;2.30;;;8.30;99.90;;;;;;5027973;28;20278;-64
2023/05/17 02:25:44;;;;;;;9.60;1.97;;;8.30;99.90;;;;;;5044767;28;20228;-63
2023/05/17 02:28:10;;;;;;;7.03;1.70;;;8.30;99.90;;;;;;5042284;28;20217;-63
2023/05/17 02:30:39;;;;;;;11.30;2.20;;;8.30;99.90;;;;;;5030365;28;20956;-63
2023/05/17 02:33:07;;;;;;;14.20;2.57;;;8.30;99.90;;;;;;5030739;28;20729;-63
2023/05/17 02:35:34;;;;;;;8.10;2.70;;;8.30;99.90;;;;;;5035257;28;20334;-64
2023/05/17 02:38:01;;;;;;;11.77;2.00;;;8.30;99.90;;;;;;5014771;28;20292;-63
2023/05/17 02:40:28;;;;;;;6.87;1.73;;;8.30;99.90;;;;;;5029822;28;20721;-63
2023/05/17 02:42:55;;;;;;;8.77;2.67;;;8.30;99.90;;;;;;5048385;28;20273;-64
2023/05/17 02:45:22;;;;;;;8.03;1.77;;;8.30;99.90;;;;;;5033230;28;20225;-63
2023/05/17 02:47:49;;;;;;;10.47;2.73;;;8.30;99.90;;;;;;5031679;28;20982;-64
2023/05/17 02:50:17;;;;;;;10.13;1.93;;;8.20;99.90;;;;;;5042113;28;20317;-64
2023/05/17 02:52:44;;;;;;;5.20;1.70;;;8.20;99.90;;;;;;5013069;28;20753;-63
2023/05/17 02:55:10;;;;;;;14.00;2.10;;;8.10;99.90;;;;;;5031628;28;20309;-63
2023/05/17 02:57:38;;;;;;;10.30;2.47;;;8.10;99.90;;;;;;5044753;28;20201;-63
2023/05/17 03:00:05;;;;;;;5.53;2.23;;;8.00;99.90;;;;;;5040825;28;20224;-63
2023/05/17 03:02:32;;;;;;;10.70;2.40;;;8.00;99.90;;;;;;5016773;28;21007;-63
2023/05/17 03:04:59;;;;;;;9.87;2.03;;;8.00;99.90;;;;;;5041471;28;20255;-64
2023/05/17 03:07:27;;;;;;;6.47;1.53;;;8.00;99.90;;;;;;5005168;28;20236;-63
2023/05/17 03:09:54;;;;;;;10.73;2.60;;;8.00;99.90;;;;;;5027105;28;20267;-63
2023/05/17 03:12:21;;;;;;;14.30;2.10;;;8.00;99.90;;;;;;5038145;28;20288;-63
2023/05/17 03:14:48;;;;;;;9.47;2.07;;;8.00;99.90;;;;;;5035532;28;20262;-63
2023/05/17 03:17:15;;;;;;;10.47;2.53;;;8.00;99.90;;;;;;5019427;28;20216;-63
2023/05/17 03:19:42;;;;;;;8.90;1.90;;;8.00;99.90;;;;;;5031464;28;20232;-63
2023/05/17 03:22:09;;;;;;;9.07;1.83;;;8.00;99.90;;;;;;5027410;28;20298;-64
2023/05/17 03:24:37;;;;;;;8.10;2.00;;;7.90;99.90;;;;;;5027259;28;20301;-63
2023/05/17 03:27:04;;;;;;;9.93;2.03;;;7.90;99.90;;;;;;5024237;28;20212;-63
2023/05/17 03:29:31;;;;;;;11.47;2.83;;;7.90;99.90;;;;;;5038665;28;20233;-63
2023/05/17 03:31:58;;;;;;;13.70;1.73;;;7.90;99.90;;;;;;5017584;28;20346;-64
2023/05/17 03:34:25;;;;;;;18.63;2.57;;;7.90;99.90;;;;;;5024880;28;20320;-63
2023/05/17 03:36:52;;;;;;;9.77;1.83;;;7.90;99.90;;;;;;5036503;28;20225;-63
2023/05/17 03:39:19;;;;;;;9.13;1.80;;;8.00;99.90;;;;;;5019021;28;20293;-63
2023/05/17 03:41:47;;;;;;;8.57;2.37;;;8.00;99.90;;;;;;5028105;28;20252;-63
2023/05/17 03:44:14;;;;;;;6.00;1.57;;;8.00;99.90;;;;;;5036811;28;20227;-63
2023/05/17 03:46:41;;;;;;;6.27;1.77;;;8.10;99.90;;;;;;5028566;28;20550;-64
2023/05/17 03:49:08;;;;;;;8.27;2.00;;;8.00;99.90;;;;;;5030033;28;20289;-64
2023/05/17 03:51:35;;;;;;;4.10;1.40;;;8.10;99.90;;;;;;5036346;28;20221;-63
2023/05/17 03:54:02;;;;;;;10.57;2.27;;;8.00;99.90;;;;;;5011763;28;21200;-64
2023/05/17 03:56:29;;;;;;;11.03;1.93;;;8.00;99.90;;;;;;5040044;28;20220;-64
2023/05/17 03:58:57;;;;;;;7.00;1.87;;;8.10;99.90;;;;;;5022191;28;20860;-63
2023/05/17 04:01:24;;;;;;;6.10;1.73;;;8.10;99.90;;;;;;5035979;28;20308;-63
2023/05/17 04:03:50;;;;;;;12.30;2.10;;;8.10;99.90;;;;;;5009874;28;20757;-63
2023/05/17 04:06:17;;;;;;;11.73;1.80;;;8.10;99.90;;;;;;5035487;28;20297;-63
2023/05/17 04:08:44;;;;;;;10.63;1.63;;;8.10;99.90;;;;;;4995238;28;20290;-64
2023/05/17 04:11:12;;;;;;;5.33;1.57;;;8.10;99.90;;;;;;5033301;28;20220;-63
2023/05/17 04:13:39;;;;;;;6.90;1.50;;;8.10;99.90;;;;;;5024973;28;20774;-63
2023/05/17 04:16:08;;;;;;;4.80;1.47;;;8.10;99.90;;;;;;5039367;28;20229;-63
2023/05/17 04:18:36;;;;;;;4.17;1.50;;;8.10;99.90;;;;;;5023846;28;20339;-64
2023/05/17 04:21:03;;;;;;;10.13;1.40;;;8.20;99.90;;;;;;5032802;28;20742;-63
2023/05/17 04:23:30;;;;;;;7.03;1.90;;;8.20;99.90;;;;;;5032965;28;20783;-63
2023/05/17 04:25:57;;;;;;;7.03;2.00;;;8.20;99.90;;;;;;5021179;28;20232;-63
2023/05/17 04:28:24;;;;;;;9.83;1.70;;;8.20;99.90;;;;;;5029151;28;20208;-63
2023/05/17 04:30:52;;;;;;;8.30;1.80;;;8.30;99.90;;;;;;5038639;28;20692;-63
2023/05/17 04:33:20;;;;;;;6.17;2.03;;;8.30;99.90;;;;;;5022586;28;20224;-63
2023/05/17 04:35:47;;;;;;;8.07;1.67;;;8.30;99.90;;;;;;5022039;28;20255;-63
2023/05/17 04:38:14;;;;;;;5.53;1.60;;;8.30;99.90;;;;;;5038479;28;20985;-63
2023/05/17 04:40:41;;;;;;;4.60;1.53;;;8.30;99.90;;;;;;4999686;28;20309;-63
2023/05/17 04:43:08;;;;;;;10.80;1.77;;;8.30;99.90;;;;;;5026922;28;20724;-63
2023/05/17 04:45:36;;;;;;;6.83;1.73;;;8.20;99.90;;;;;;5028679;28;20201;-63
2023/05/17 04:48:03;;;;;;;8.13;1.63;;;8.30;99.90;;;;;;5032099;28;20226;-63
2023/05/17 04:50:31;;;;;;;4.90;1.50;;;8.30;99.90;;;;;;5021808;28;20253;-63
2023/05/17 04:52:58;;;;;;;6.73;1.60;;;8.30;99.90;;;;;;5025296;28;20441;-63
2023/05/17 04:55:25;;;;;;;5.20;1.47;;;8.30;99.90;;;;;;5009461;28;20225;-64
2023/05/17 04:57:52;;;;;;;11.87;2.70;;;8.30;99.90;;;;;;5029835;28;21326;-63
2023/05/17 05:00:19;;;;;;;6.77;1.80;;;8.30;99.90;;;;;;5032613;28;20267;-63
2023/05/17 05:02:46;;;;;;;6.40;2.00;;;8.30;99.90;;;;;;5042538;28;20212;-63
2023/05/17 05:05:13;;;;;;;5.03;2.20;;;8.30;99.90;;;;;;5028803;28;20232;-63
2023/05/17 05:07:41;;;;;;;10.90;2.33;;;8.30;99.90;;;;;;5030345;28;20297;-62
2023/05/17 05:10:09;;;;;;;11.27;1.90;;;8.40;99.90;;;;;;5030256;28;20387;-63
2023/05/17 05:12:36;;;;;;;12.97;2.10;;;8.40;99.90;;;;;;5009796;28;20576;-63
2023/05/17 05:15:02;;;;;;;9.97;2.53;;;8.30;99.90;;;;;;5035635;28;20343;-63
2023/05/17 05:17:31;;;;;;;9.37;2.17;;;8.40;99.90;;;;;;5046222;28;20293;-63
2023/05/17 05:19:57;;;;;;;11.13;2.07;;;8.40;99.90;;;;;;5040335;28;20977;-63
2023/05/17 05:22:24;;;;;;;7.40;1.80;;;8.40;99.90;;;;;;5019016;28;20200;-63
2023/05/17 05:24:53;;;;;;;5.90;2.20;;;8.50;99.90;;;;;;5047685;28;20670;-63
2023/05/17 05:27:20;;;;;;;11.83;2.20;;;8.50;99.90;;;;;;5014954;28;20226;-63
2023/05/17 05:29:46;;;;;;;9.63;2.23;;;8.60;99.90;;;;;;5016569;28;20350;-64
2023/05/17 05:32:14;;;;;;;8.07;2.60;;;8.60;99.90;;;;;;5031752;28;20340;-63
2023/05/17 05:34:41;;;;;;;6.10;2.07;;;8.70;99.90;;;;;;5026580;28;20252;-63
2023/05/17 05:37:08;;;;;;;12.50;2.60;;;8.80;99.90;;;;;;5025111;28;20300;-63
2023/05/17 05:39:34;;;;;;;14.70;2.20;;;8.80;99.90;;;;;;5040279;28;20250;-63
2023/05/17 05:42:03;;;;;;;4.23;1.37;;;8.80;99.90;;;;;;5039880;28;20293;-63
2023/05/17 05:44:30;;;;;;;5.50;1.60;;;8.90;99.90;;;;;;5013186;28;20309;-63
2023/05/17 05:46:57;;;;;;;5.50;1.57;;;9.00;99.90;;;;;;5039388;28;20220;-63
2023/05/17 05:49:23;;;;;;;10.33;1.83;;;9.10;99.90;;;;;;5037843;28;20220;-63
2023/05/17 05:51:50;;;;;;;9.37;1.90;;;9.20;99.90;;;;;;5034745;28;20322;-63
2023/05/17 05:54:17;;;;;;;9.40;1.77;;;9.30;99.90;;;;;;5050687;28;20726;-63
2023/05/17 05:56:44;;;;;;;13.20;1.87;;;9.40;99.90;;;;;;5044326;28;20236;-63
2023/05/17 05:59:12;;;;;;;13.43;2.10;;;9.40;99.90;;;;;;5020064;28;20236;-64
2023/05/17 06:01:40;;;;;;;8.23;2.00;;;9.40;99.90;;;;;;5035046;28;20291;-63
2023/05/17 06:04:06;;;;;;;8.33;1.87;;;9.30;99.90;;;;;;5045889;28;20201;-63
2023/05/17 06:06:33;;;;;;;10.93;1.90;;;9.20;99.90;;;;;;5023913;28;20229;-63
2023/05/17 06:09:00;;;;;;;5.67;1.80;;;9.20;99.90;;;;;;5041234;28;20327;-63
2023/05/17 06:11:27;;;;;;;5.87;2.20;;;9.10;99.90;;;;;;5043413;28;20201;-63
2023/05/17 06:13:54;;;;;;;9.83;1.87;;;9.10;99.90;;;;;;5038773;28;20218;-63
2023/05/17 06:16:22;;;;;;;7.80;1.87;;;9.10;99.90;;;;;;5015223;28;20566;-63
2023/05/17 06:18:49;;;;;;;12.60;2.37;;;9.00;99.90;;;;;;5026931;28;20229;-63
2023/05/17 06:21:17;;;;;;;7.43;2.10;;;9.00;99.90;;;;;;5038806;28;20750;-63
2023/05/17 06:23:43;;;;;;;12.90;2.10;;;9.00;99.90;;;;;;5035726;28;20221;-63
2023/05/17 06:26:10;;;;;;;8.50;2.30;;;9.00;99.90;;;;;;5047706;28;20197;-63
2023/05/17 06:28:37;;;;;;;9.93;1.63;;;8.90;99.90;;;;;;5027800;28;21100;-63
2023/05/17 06:31:04;;;;;;;6.07;2.67;;;8.90;99.90;;;;;;5011339;28;20359;-63
2023/05/17 06:33:32;;;;;;;16.67;2.40;;;8.90;99.90;;;;;;5032702;28;20248;-63
2023/05/17 06:35:59;;;;;;;10.90;2.33;;;8.80;99.90;;;;;;5028449;28;20228;-62
2023/05/17 06:38:26;;;;;;;11.73;2.53;;;8.80;99.90;;;;;;5030623;28;20326;-63
2023/05/17 06:40:53;;;;;;;9.20;2.30;;;8.80;99.90;;;;;;5039146;28;20385;-62
2023/05/17 06:43:20;;;;;;;13.23;2.37;;;8.70;99.90;;;;;;5030033;28;20224;-63
2023/05/17 06:45:47;;;;;;;9.73;2.00;;;8.70;99.90;;;;;;5036842;28;20291;-63
2023/05/17 06:48:14;;;;;;;7.57;2.27;;;8.70;99.90;;;;;;5002378;28;20231;-63
2023/05/17 06:50:43;;;;;;;11.60;2.57;;;8.80;99.90;;;;;;5039744;28;20201;-63
2023/05/17 06:53:09;;;;;;;11.63;2.40;;;8.70;99.90;;;;;;5032829;28;20207;-63
2023/05/17 06:55:37;;;;;;;9.37;2.57;;;8.80;99.90;;;;;;5048643;28;20216;-63
2023/05/17 06:58:04;;;;;;;7.63;1.80;;;8.80;99.90;;;;;;5041025;28;20216;-63
2023/05/17 07:00:31;;;;;;;8.87;2.00;;;8.90;99.90;;;;;;5032147;28;21086;-63
2023/05/17 07:02:58;;;;;;;10.03;2.73;;;8.90;99.90;;;;;;5011666;28;20213;-63
2023/05/17 07:05:24;;;;;;;7.53;2.20;;;9.00;99.90;;;;;;5014986;28;20599;-64
2023/05/17 07:07:53;;;;;;;7.87;1.73;;;9.00;99.90;;;;;;5014957;28;20227;-63
2023/05/17 07:10:19;;;;;;;8.63;2.53;;;9.10;99.90;;;;;;5047314;28;20200;-63
2023/05/17 07:12:47;;;;;;;8.47;2.00;;;9.10;99.90;;;;;;5029663;28;20197;-63
2023/05/17 07:15:14;;;;;;;15.13;2.13;;;9.20;99.90;;;;;;5047282;28;20315;-63
2023/05/17 07:17:41;;;;;;;4.37;1.57;;;9.20;99.90;;;;;;5039841;28;20201;-63
2023/05/17 07:20:09;;;;;;;6.03;1.60;;;9.20;99.90;;;;;;5003174;28;20215;-63
2023/05/17 07:22:37;;;;;;;3.27;1.47;;;9.20;99.90;;;;;;5021865;28;20710;-63
2023/05/17 07:25:07;;;;;;;12.87;2.10;;;9.20;99.90;;;;;;5028387;28;20228;-63
2023/05/17 07:27:33;;;;;;;11.97;1.60;;;9.20;99.90;;;;;;5050492;28;20594;-63
2023/05/17 07:30:02;;;;;;;7.70;1.53;;;9.20;99.90;;;;;;5039927;28;20232;-62
2023/05/17 07:32:29;;;;;;;6.30;1.63;;;9.10;99.90;;;;;;5048426;28;20245;-62
2023/05/17 07:34:55;;;;;;;11.33;1.80;;;9.10;99.90;;;;;;5005759;28;20225;-62
2023/05/17 07:37:23;;;;;;;8.10;1.63;;;9.10;99.90;;;;;;5028610;28;21274;-62
2023/05/17 07:39:49;;;;;;;9.80;1.80;;;9.00;99.90;;;;;;5022435;28;20224;-63
2023/05/17 07:42:17;;;;;;;6.23;1.20;;;9.00;99.90;;;;;;5039333;28;20212;-62
2023/05/17 07:44:47;;;;;;;5.57;1.60;;;9.10;99.90;;;;;;5027314;28;20211;-62
2023/05/17 07:47:14;;;;;;;4.53;1.50;;;9.20;99.90;;;;;;5048135;28;20196;-62
2023/05/17 07:49:40;;;;;;;6.07;1.63;;;9.20;99.90;;;;;;5016100;28;20201;-62
2023/05/17 07:52:07;;;;;;;10.23;2.30;;;9.20;99.90;;;;;;5045007;28;20207;-62
2023/05/17 07:54:35;;;;;;;7.33;2.07;;;9.20;99.90;;;;;;5022848;28;20278;-63
2023/05/17 07:57:01;;;;;;;15.10;1.90;;;9.20;99.90;;;;;;5040803;28;20679;-63
2023/05/17 07:59:29;;;;;;;4.50;1.33;;;9.30;99.90;;;;;;5034694;28;21132;-63
2023/05/17 08:01:57;;;;;;;6.87;1.40;;;9.30;99.90;;;;;;5036074;28;20286;-63
2023/05/17 08:04:24;;;;;;;6.20;1.90;;;9.30;99.90;;;;;;5029875;28;20197;-63
2023/05/17 08:06:51;;;;;;;8.00;1.60;;;9.30;99.90;;;;;;5019804;28;20677;-63
2023/05/17 08:09:18;;;;;;;6.90;1.57;;;9.40;99.90;;;;;;5035755;28;20874;-63
2023/05/17 08:11:45;;;;;;;14.20;1.90;;;9.50;99.90;;;;;;5048817;28;20845;-63
2023/05/17 08:14:13;;;;;;;5.10;1.43;;;9.60;99.90;;;;;;5035322;28;20205;-63
2023/05/17 08:16:42;;;;;;;10.80;1.77;;;9.60;99.90;;;;;;5026280;28;20260;-62
2023/05/17 08:19:14;;;;;;;6.20;1.87;;;9.60;99.90;;;;;;5021134;28;20267;-63
2023/05/17 08:21:41;;;;;;;7.50;1.73;;;9.70;99.90;;;;;;5011098;28;20314;-63
2023/05/17 08:24:09;;;;;;;6.93;1.77;;;9.70;99.90;;;;;;5038715;28;20852;-62
2023/05/17 08:26:35;;;;;;;6.87;1.50;;;9.80;99.90;;;;;;5034536;28;20219;-62
2023/05/17 08:29:03;;;;;;;10.60;1.73;;;9.80;99.90;;;;;;5028025;28;20212;-62
2023/05/17 08:31:30;;;;;;;3.93;1.47;;;9.60;99.90;;;;;;5029447;28;20710;-62
2023/05/17 08:33:58;;;;;;;6.23;1.60;;;9.60;99.90;;;;;;5037749;28;20227;-62
2023/05/17 08:36:25;;;;;;;9.93;1.90;;;9.60;99.90;;;;;;5038294;28;20228;-62
2023/05/17 08:38:52;;;;;;;8.53;2.07;;;9.60;99.90;;;;;;5007032;28;20232;-63
2023/05/17 08:41:20;;;;;;;8.43;2.00;;;9.70;99.90;;;;;;5029509;28;20217;-63
2023/05/17 08:43:47;;;;;;;19.53;2.43;;;9.80;99.90;;;;;;5042702;28;20224;-63
2023/05/17 08:46:15;;;;;;;3.67;1.83;;;9.80;99.90;;;;;;5031784;28;20612;-63
2023/05/17 08:48:42;;;;;;;7.60;1.67;;;9.80;99.90;;;;;;5042806;28;20233;-63
2023/05/17 08:51:11;;;;;;;7.77;1.43;;;9.80;99.90;;;;;;5028303;28;20213;-63
2023/05/17 08:53:38;;;;;;;4.50;1.40;;;9.90;99.90;;;;;;5013266;28;20302;-62
2023/05/17 08:56:06;;;;;;;8.50;1.73;;;9.90;99.90;;;;;;5027767;28;20231;-63
2023/05/17 08:58:37;;;;;;;4.53;2.05;;;9.90;99.90;;;;;;5047954;28;20227;-62
2023/05/17 09:01:07;;;;;;;5.82;1.50;;;9.90;99.90;;;;;;5031124;28;20961;-63
2023/05/17 09:03:36;;;;;;;4.45;1.75;;;9.90;99.90;;;;;;5043950;28;20236;-63
2023/05/17 09:06:03;;;;;;;8.75;1.67;;;9.90;99.90;;;;;;5017794;28;21141;-63
2023/05/17 09:08:31;;;;;;;10.20;2.00;;;10.00;99.90;;;;;;5015686;28;20279;-63
2023/05/17 09:10:59;;;;;;;5.60;1.50;;;10.00;99.90;;;;;;5037043;28;20232;-63
2023/05/17 09:13:26;;;;;;;4.65;1.30;;;10.00;99.90;;;;;;5044214;28;20219;-63
2023/05/17 09:15:53;;;;;;;3.43;1.47;;;9.90;99.90;;;;;;5036768;28;20274;-63
2023/05/17 09:18:29;;;;;;;4.30;1.40;;;9.70;99.90;;;;;;5035843;28;20275;-63
2023/05/17 09:20:56;;;;;;;4.67;1.73;;;9.70;99.90;;;;;;5027361;28;20229;-63
2023/05/17 09:23:22;;;;;;;5.65;1.40;;;9.70;99.90;;;;;;5045526;28;20240;-63
2023/05/17 09:25:50;;;;;;;9.37;1.80;;;9.70;99.90;;;;;;5016499;28;20990;-63
2023/05/17 09:28:20;;;;;;;4.30;1.40;;;9.80;99.90;;;;;;5032164;28;20218;-63
2023/05/17 09:30:49;;;;;;;4.57;1.80;;;10.10;99.90;;;;;;5048422;28;20231;-63
2023/05/17 09:33:16;;;;;;;6.15;1.33;;;10.20;99.90;;;;;;5033437;28;20709;-62
2023/05/17 09:35:42;;;;;;;7.35;1.30;;;10.00;99.90;;;;;;5047839;28;20224;-62
2023/05/17 09:38:12;;;;;;;3.00;1.38;;;9.90;99.90;;;;;;5041506;28;20289;-63
2023/05/17 09:40:42;;;;;;;9.20;1.33;;;9.80;99.90;;;;;;5019979;28;20216;-63
2023/05/17 09:43:11;;;;;;;4.23;1.83;;;9.60;99.90;;;;;;5029438;28;20204;-63
2023/05/17 09:45:38;;;;;;;6.57;1.73;;;9.50;99.90;;;;;;5052051;28;20205;-63
2023/05/17 09:48:13;;;;;;;5.27;1.43;;;9.40;99.90;;;;;;5034564;28;20584;-62
2023/05/17 09:50:44;;;;;;;5.43;1.57;;;9.60;99.90;;;;;;5038189;28;20225;-63
2023/05/17 09:53:25;;;;;;;4.77;1.43;;;9.60;99.90;;;;;;5038805;28;20466;-63
2023/05/17 09:55:54;;;;;;;9.53;2.07;;;9.70;99.90;;;;;;5009615;28;20232;-63
2023/05/17 09:58:22;;;;;;;8.70;1.45;;;9.80;99.90;;;;;;5028730;28;21160;-63
2023/05/17 10:00:53;;;;;;;10.30;1.60;;;9.90;99.90;;;;;;5048822;28;20216;-63
2023/05/17 10:03:20;;;;;;;4.13;1.60;;;10.00;99.90;;;;;;5035594;28;20205;-63
2023/05/17 10:05:50;;;;;;;7.13;1.83;;;10.20;99.90;;;;;;5047732;28;20212;-63
2023/05/17 10:08:20;;;;;;;4.38;1.55;;;10.50;99.90;;;;;;5037836;28;20230;-63
2023/05/17 10:10:48;;;;;;;7.40;1.90;;;10.60;99.90;;;;;;5040531;28;20224;-63
2023/05/17 10:13:18;;;;;;;3.65;1.30;;;10.60;99.90;;;;;;5018979;28;20212;-63
2023/05/17 10:15:47;;;;;;;7.72;1.42;;;10.70;99.90;;;;;;5043426;28;20231;-63
2023/05/17 10:18:16;;;;;;;5.93;1.58;;;10.60;99.90;;;;;;5037048;28;20216;-63
2023/05/17 10:20:43;;;;;;;5.90;1.95;;;10.40;99.90;;;;;;5039438;28;20212;-62
2023/05/17 10:23:11;;;;;;;7.17;1.70;;;10.20;99.90;;;;;;5044618;28;20236;-63
2023/05/17 10:25:39;;;;;;;3.83;1.30;;;10.20;99.90;;;;;;5051135;28;20200;-63
2023/05/17 10:28:06;;;;;;;7.38;2.08;;;10.40;99.90;;;;;;5004254;28;20200;-63
2023/05/17 10:30:35;;;;;;;8.88;2.00;;;10.40;99.90;;;;;;5028850;28;20225;-63
2023/05/17 10:33:05;;;;;;;11.57;1.60;;;10.40;99.90;;;;;;5027607;28;20196;-63
2023/05/17 10:35:33;;;;;;;10.33;2.47;;;10.30;99.90;;;;;;5028914;28;20223;-63
2023/05/17 10:38:00;;;;;;;9.90;2.53;;;10.30;99.90;;;;;;5043301;28;20207;-63
2023/05/17 10:40:30;;;;;;;8.98;2.50;;;10.30;99.90;;;;;;5042190;28;20198;-62
2023/05/17 10:42:58;;;;;;;6.88;1.85;;;10.20;99.90;;;;;;5011267;28;20232;-63
2023/05/17 10:45:26;;;;;;;7.72;1.90;;;10.50;99.90;;;;;;5031862;28;20212;-63
2023/05/17 10:47:54;;;;;;;5.15;1.83;;;10.50;99.90;;;;;;5038584;28;20201;-63
2023/05/17 10:50:26;;;;;;;8.07;1.67;;;10.40;99.90;;;;;;5028204;28;20216;-63
2023/05/17 10:52:55;;;;;;;4.17;1.40;;;10.40;99.90;;;;;;5032514;28;20224;-63
2023/05/17 10:55:24;;;;;;;4.57;1.43;;;10.40;99.90;;;;;;5050509;28;20204;-63
2023/05/17 10:58:18;;;;;;;4.68;2.42;;;10.30;99.90;;;;;;4997419;28;20229;-63
2023/05/17 11:00:47;;;;;;;7.68;1.63;;;10.40;99.90;;;;;;5016680;28;21413;-63
2023/05/17 11:03:15;;;;;;;5.43;1.52;;;10.40;99.90;;;;;;5035120;28;20205;-63
2023/05/17 11:05:45;;;;;;;6.20;1.80;;;10.60;99.90;;;;;;5015699;28;20217;-63
2023/05/17 11:08:16;;;;;;;5.50;2.10;;;10.80;99.90;;;;;;5053393;22;20227;-63
2023/05/17 11:11:11;;;;;;;4.88;1.73;;;10.80;99.90;;;;;;5080291;27;20219;-63
2023/05/17 11:13:45;;;;;;;8.52;1.85;;;10.90;99.90;;;;;;5049029;27;20228;-63
2023/05/17 11:16:16;;;;;;;8.35;1.50;;;10.90;99.90;;;;;;5069559;28;20225;-63
2023/05/17 11:18:50;;;;;;;5.57;1.88;;;10.60;99.90;;;;;;5050515;28;20216;-63
2023/05/17 11:21:18;;;;;;;3.83;1.60;;;10.60;99.90;;;;;;5058846;28;20207;-63
2023/05/17 11:23:46;;;;;;;7.55;2.17;;;10.70;99.90;;;;;;5070142;28;20839;-63
2023/05/17 11:26:21;;;;;;;5.35;1.75;;;10.90;99.90;;;;;;5071282;28;20219;-63
2023/05/17 11:28:48;;;;;;;5.47;1.60;;;11.00;99.90;;;;;;5056072;28;20685;-63
2023/05/17 11:31:15;;;;;;;6.00;1.67;;;11.10;99.90;;;;;;5054859;28;20445;-63
2023/05/17 11:33:44;;;;;;;7.85;1.92;;;10.90;99.90;;;;;;5059307;28;20910;-63
2023/05/17 11:36:19;;;;;;;2.30;1.52;;;10.90;99.90;;;;;;5072142;28;20215;-63
2023/05/17 11:38:50;;;;;;;7.10;2.00;;;10.70;99.90;;;;;;5061718;27;20364;-63
2023/05/17 11:41:20;;;;;;;3.50;1.42;;;10.50;99.90;;;;;;5053443;28;20332;-63
2023/05/17 11:43:48;;;;;;;4.15;1.77;;;10.30;99.90;;;;;;5075188;28;20645;-62
2023/05/17 11:46:22;;;;;;;5.43;1.43;;;10.40;99.90;;;;;;5047656;28;20214;-63
2023/05/17 11:48:51;;;;;;;5.90;1.80;;;10.40;99.90;;;;;;5064660;28;20204;-63
2023/05/17 11:51:19;;;;;;;4.13;1.27;;;10.30;99.90;;;;;;5078274;28;21262;-63
2023/05/17 11:53:47;;;;;;;8.98;2.25;;;10.10;99.90;;;;;;5056615;28;20622;-63
2023/05/17 11:56:16;;;;;;;9.25;1.75;;;10.00;99.90;;;;;;5067054;28;20219;-63
2023/05/17 11:58:44;;;;;;;7.33;2.27;;;10.00;99.90;;;;;;5072497;28;20707;-63
2023/05/17 12:01:10;;;;;;;8.70;1.60;;;9.80;99.90;;;;;;5044870;28;20726;-63
2023/05/17 12:03:37;;;;;;;4.33;1.70;;;9.80;99.90;;;;;;5042261;27;20893;-63
2023/05/17 12:06:09;;;;;;;10.53;1.87;;;9.80;99.90;;;;;;5066502;28;20199;-63
2023/05/17 12:08:37;;;;;;;10.30;1.83;;;9.90;99.90;;;;;;5032742;28;20228;-62
2023/05/17 12:11:05;;;;;;;8.77;1.97;;;9.90;99.90;;;;;;5060140;28;20207;-63
2023/05/17 12:13:35;;;;;;;7.80;2.03;;;10.00;99.90;;;;;;5067569;28;20194;-63
2023/05/17 12:16:04;;;;;;;7.10;1.83;;;10.00;99.90;;;;;;5043003;28;20524;-63
2023/05/17 12:18:36;;;;;;;7.35;2.00;;;10.10;99.90;;;;;;5055295;28;20568;-63
2023/05/17 12:21:03;;;;;;;11.47;2.27;;;10.20;99.90;;;;;;5073512;28;20211;-63
2023/05/17 12:23:31;;;;;;;6.72;1.98;;;10.30;99.90;;;;;;5041165;28;20363;-63
2023/05/17 12:26:06;;;;;;;5.75;2.03;;;10.30;99.90;;;;;;5045993;28;20384;-63
2023/05/17 12:28:36;;;;;;;10.37;2.40;;;10.30;99.90;;;;;;5071968;28;20200;-63
2023/05/17 12:31:04;;;;;;;12.02;2.05;;;10.20;99.90;;;;;;5044426;28;20212;-63
2023/05/17 12:33:35;;;;;;;8.33;1.90;;;10.20;99.90;;;;;;5070014;28;20202;-63
2023/05/17 12:36:03;;;;;;;5.07;1.77;;;10.10;99.90;;;;;;5056035;28;20988;-63
2023/05/17 12:38:32;;;;;;;5.17;1.50;;;9.90;99.90;;;;;;5066946;28;20198;-63
2023/05/17 12:41:00;;;;;;;8.30;1.60;;;10.00;99.90;;;;;;5047498;28;20204;-63
2023/05/17 12:43:27;;;;;;;5.93;1.58;;;9.90;99.90;;;;;;5076761;28;20199;-64
2023/05/17 12:46:02;;;;;;;12.13;2.10;;;10.00;99.90;;;;;;5069131;28;20315;-63
2023/05/17 12:48:28;;;;;;;9.57;2.20;;;10.10;99.90;;;;;;5068812;28;20199;-63
2023/05/17 12:50:55;;;;;;;6.85;1.50;;;10.30;99.90;;;;;;5063338;28;20223;-63
2023/05/17 12:53:23;;;;;;;4.53;1.25;;;10.50;99.90;;;;;;5065690;28;20572;-63
2023/05/17 12:55:50;;;;;;;7.15;1.92;;;10.50;99.90;;;;;;5067609;28;20223;-63